sensor_id;sensor_type;location;lat;lon;timestamp;pressure;altitude;pressure_sealevel;temperature;humidity
19590;BME280;12231;42.782;23.388;2023-02-13T00:01:49;97389.44;;;-1.87;100.00
19590;BME280;12231;42.782;23.388;2023-02-13T00:04:14;97388.91;;;-1.70;100.00
19590;BME280;12231;42.782;23.388;2023-02-13T00:06:40;97395.00;;;-1.57;100.00
19590;BME280;12231;42.782;23.388;2023-02-13T00:09:06;97396.75;;;-1.53;100.00
19590;BME280;12231;42.782;23.388;2023-02-13T00:11:35;97394.25;;;-1.52;100.00
19590;BME280;12231;42.782;23.388;2023-02-13T00:14:00;97395.94;;;-1.51;100.00
19590;BME280;12231;42.782;23.388;2023-02-13T00:16:26;97401.88;;;-1.49;100.00
19590;BME280;12231;42.782;23.388;2023-02-13T00:18:51;97407.81;;;-1.47;100.00
19590;BME280;12231;42.782;23.388;2023-02-13T00:21:16;97400.78;;;-1.63;100.00
19590;BME280;12231;42.782;23.388;2023-02-13T00:23:42;97405.06;;;-1.59;100.00
19590;BME280;12231;42.782;23.388;2023-02-13T00:26:09;97404.13;;;-1.65;100.00
19590;BME280;12231;42.782;23.388;2023-02-13T00:28:35;97404.09;;;-1.67;100.00
19590;BME280;12231;42.782;23.388;2023-02-13T00:31:09;97400.53;;;-1.79;100.00
19590;BME280;12231;42.782;23.388;2023-02-13T00:33:35;97405.88;;;-1.61;100.00
19590;BME280;12231;42.782;23.388;2023-02-13T00:36:12;97408.50;;;-1.55;100.00
19590;BME280;12231;42.782;23.388;2023-02-13T00:38:39;97413.50;;;-1.60;100.00
19590;BME280;12231;42.782;23.388;2023-02-13T00:41:05;97405.78;;;-1.66;100.00
19590;BME280;12231;42.782;23.388;2023-02-13T00:43:32;97415.28;;;-1.51;100.00
19590;BME280;12231;42.782;23.388;2023-02-13T00:45:57;97415.47;;;-1.41;100.00
19590;BME280;12231;42.782;23.388;2023-02-13T00:48:27;97412.06;;;-1.43;100.00
19590;BME280;12231;42.782;23.388;2023-02-13T00:50:53;97408.28;;;-1.69;100.00
19590;BME280;12231;42.782;23.388;2023-02-13T00:53:20;97411.16;;;-1.48;100.00
19590;BME280;12231;42.782;23.388;2023-02-13T00:55:46;97407.06;;;-1.38;100.00
19590;BME280;12231;42.782;23.388;2023-02-13T00:58:12;97411.31;;;-1.37;100.00
19590;BME280;12231;42.782;23.388;2023-02-13T01:00:37;97414.88;;;-1.24;100.00
19590;BME280;12231;42.782;23.388;2023-02-13T01:03:03;97411.63;;;-1.17;100.00
19590;BME280;12231;42.782;23.388;2023-02-13T01:05:28;97410.81;;;-1.15;100.00
19590;BME280;12231;42.782;23.388;2023-02-13T01:07:54;97420.84;;;-1.21;100.00
19590;BME280;12231;42.782;23.388;2023-02-13T01:10:20;97411.78;;;-1.07;100.00
19590;BME280;12231;42.782;23.388;2023-02-13T01:12:45;97415.22;;;-1.02;100.00
19590;BME280;12231;42.782;23.388;2023-02-13T01:15:11;97418.63;;;-1.00;100.00
19590;BME280;12231;42.782;23.388;2023-02-13T01:17:36;97423.38;;;-1.21;100.00
19590;BME280;12231;42.782;23.388;2023-02-13T01:20:08;97429.47;;;-1.07;100.00
19590;BME280;12231;42.782;23.388;2023-02-13T01:22:34;97426.19;;;-1.01;100.00
19590;BME280;12231;42.782;23.388;2023-02-13T01:24:59;97425.50;;;-0.93;100.00
19590;BME280;12231;42.782;23.388;2023-02-13T01:27:27;97418.69;;;-0.95;100.00
19590;BME280;12231;42.782;23.388;2023-02-13T01:29:52;97419.63;;;-0.89;100.00
19590;BME280;12231;42.782;23.388;2023-02-13T01:32:18;97433.13;;;-0.90;100.00
19590;BME280;12231;42.782;23.388;2023-02-13T01:34:43;97428.09;;;-0.87;100.00
19590;BME280;12231;42.782;23.388;2023-02-13T01:37:09;97429.75;;;-0.87;100.00
19590;BME280;12231;42.782;23.388;2023-02-13T01:39:34;97430.44;;;-0.99;100.00
19590;BME280;12231;42.782;23.388;2023-02-13T01:41:59;97427.91;;;-0.99;100.00
19590;BME280;12231;42.782;23.388;2023-02-13T01:44:54;97432.94;;;-1.00;100.00
19590;BME280;12231;42.782;23.388;2023-02-13T01:47:39;97433.75;;;-1.04;100.00
19590;BME280;12231;42.782;23.388;2023-02-13T01:50:15;97438.88;;;-1.00;100.00
19590;BME280;12231;42.782;23.388;2023-02-13T01:52:47;97431.28;;;-1.00;100.00
19590;BME280;12231;42.782;23.388;2023-02-13T01:55:15;97431.25;;;-1.03;100.00
19590;BME280;12231;42.782;23.388;2023-02-13T01:57:44;97424.38;;;-1.10;100.00
19590;BME280;12231;42.782;23.388;2023-02-13T02:00:14;97428.75;;;-1.00;100.00
19590;BME280;12231;42.782;23.388;2023-02-13T02:02:44;97431.28;;;-1.00;100.00
19590;BME280;12231;42.782;23.388;2023-02-13T02:05:12;97429.47;;;-1.08;100.00
19590;BME280;12231;42.782;23.388;2023-02-13T02:07:39;97428.81;;;-0.95;100.00
19590;BME280;12231;42.782;23.388;2023-02-13T02:10:13;97431.34;;;-0.94;100.00
19590;BME280;12231;42.782;23.388;2023-02-13T02:12:49;97430.06;;;-1.23;100.00
19590;BME280;12231;42.782;23.388;2023-02-13T02:15:16;97430.28;;;-1.09;100.00
19590;BME280;12231;42.782;23.388;2023-02-13T02:17:42;97428.03;;;-0.93;100.00
19590;BME280;12231;42.782;23.388;2023-02-13T02:28:41;97433.06;;;-0.30;100.00
19590;BME280;12231;42.782;23.388;2023-02-13T02:45:53;97466.25;;;-0.73;100.00
19590;BME280;12231;42.782;23.388;2023-02-13T02:56:52;97457.63;;;-0.86;100.00
19590;BME280;12231;42.782;23.388;2023-02-13T02:59:20;97468.56;;;-0.88;100.00
19590;BME280;12231;42.782;23.388;2023-02-13T03:02:07;97460.94;;;-0.90;100.00
19590;BME280;12231;42.782;23.388;2023-02-13T03:04:54;97461.59;;;-1.03;100.00
19590;BME280;12231;42.782;23.388;2023-02-13T03:07:39;97462.47;;;-1.01;100.00
19590;BME280;12231;42.782;23.388;2023-02-13T03:10:11;97459.78;;;-1.10;100.00
19590;BME280;12231;42.782;23.388;2023-02-13T03:13:12;97457.13;;;-1.19;100.00
19590;BME280;12231;42.782;23.388;2023-02-13T03:15:47;97453.75;;;-1.18;100.00
19590;BME280;12231;42.782;23.388;2023-02-13T03:18:36;97456.97;;;-1.28;100.00
19590;BME280;12231;42.782;23.388;2023-02-13T03:27:28;97462.78;;;-1.35;100.00
19590;BME280;12231;42.782;23.388;2023-02-13T03:35:53;97457.22;;;-1.64;100.00
19590;BME280;12231;42.782;23.388;2023-02-13T03:41:29;97461.50;;;-1.61;100.00
19590;BME280;12231;42.782;23.388;2023-02-13T03:44:13;97469.22;;;-1.52;100.00
19590;BME280;12231;42.782;23.388;2023-02-13T03:46:43;97465.69;;;-1.60;100.00
19590;BME280;12231;42.782;23.388;2023-02-13T03:49:19;97469.94;;;-1.58;100.00
19590;BME280;12231;42.782;23.388;2023-02-13T03:52:24;97467.25;;;-1.68;100.00
19590;BME280;12231;42.782;23.388;2023-02-13T03:55:02;97467.16;;;-1.74;100.00
19590;BME280;12231;42.782;23.388;2023-02-13T03:57:49;97466.81;;;-1.92;100.00
19590;BME280;12231;42.782;23.388;2023-02-13T04:00:41;97474.38;;;-1.92;100.00
19590;BME280;12231;42.782;23.388;2023-02-13T04:06:11;97476.00;;;-1.96;100.00
19590;BME280;12231;42.782;23.388;2023-02-13T04:08:37;97480.16;;;-1.98;100.00
19590;BME280;12231;42.782;23.388;2023-02-13T04:11:16;97475.91;;;-2.02;100.00
19590;BME280;12231;42.782;23.388;2023-02-13T04:13:55;97478.16;;;-2.14;100.00
19590;BME280;12231;42.782;23.388;2023-02-13T04:16:28;97482.31;;;-2.17;100.00
19590;BME280;12231;42.782;23.388;2023-02-13T04:18:55;97489.97;;;-2.13;100.00
19590;BME280;12231;42.782;23.388;2023-02-13T04:21:21;97483.97;;;-2.18;100.00
19590;BME280;12231;42.782;23.388;2023-02-13T04:23:47;97488.28;;;-2.14;100.00
19590;BME280;12231;42.782;23.388;2023-02-13T04:26:22;97476.44;;;-2.16;100.00
19590;BME280;12231;42.782;23.388;2023-02-13T04:28:48;97478.13;;;-2.15;100.00
19590;BME280;12231;42.782;23.388;2023-02-13T04:31:14;97475.38;;;-2.26;100.00
19590;BME280;12231;42.782;23.388;2023-02-13T04:33:39;97472.97;;;-2.23;100.00
19590;BME280;12231;42.782;23.388;2023-02-13T04:36:05;97465.44;;;-2.20;100.00
19590;BME280;12231;42.782;23.388;2023-02-13T04:38:30;97475.38;;;-2.27;100.00
19590;BME280;12231;42.782;23.388;2023-02-13T04:40:56;97479.41;;;-2.35;100.00
19590;BME280;12231;42.782;23.388;2023-02-13T04:43:21;97484.50;;;-2.32;100.00
19590;BME280;12231;42.782;23.388;2023-02-13T04:45:50;97490.34;;;-2.36;100.00
19590;BME280;12231;42.782;23.388;2023-02-13T04:48:16;97483.63;;;-2.36;100.00
19590;BME280;12231;42.782;23.388;2023-02-13T04:50:41;97491.22;;;-2.34;100.00
19590;BME280;12231;42.782;23.388;2023-02-13T04:53:07;97487.72;;;-2.41;100.00
19590;BME280;12231;42.782;23.388;2023-02-13T04:55:32;97490.25;;;-2.41;100.00
19590;BME280;12231;42.782;23.388;2023-02-13T04:57:58;97487.72;;;-2.41;100.00
19590;BME280;12231;42.782;23.388;2023-02-13T05:00:25;97492.53;;;-2.51;100.00
19590;BME280;12231;42.782;23.388;2023-02-13T05:02:51;97489.13;;;-2.53;100.00
19590;BME280;12231;42.782;23.388;2023-02-13T05:05:17;97496.66;;;-2.55;100.00
19590;BME280;12231;42.782;23.388;2023-02-13T05:07:43;97497.25;;;-2.66;100.00
19590;BME280;12231;42.782;23.388;2023-02-13T05:10:10;97498.06;;;-2.67;100.00
19590;BME280;12231;42.782;23.388;2023-02-13T05:12:36;97501.34;;;-2.71;100.00
19590;BME280;12231;42.782;23.388;2023-02-13T05:15:02;97500.41;;;-2.76;100.00
19590;BME280;12231;42.782;23.388;2023-02-13T05:17:27;97506.25;;;-2.78;100.00
19590;BME280;12231;42.782;23.388;2023-02-13T05:19:54;97505.44;;;-2.76;100.00
19590;BME280;12231;42.782;23.388;2023-02-13T05:22:19;97503.59;;;-2.84;100.00
19590;BME280;12231;42.782;23.388;2023-02-13T05:25:03;97513.91;;;-3.09;100.00
19590;BME280;12231;42.782;23.388;2023-02-13T05:27:29;97506.91;;;-3.20;100.00
19590;BME280;12231;42.782;23.388;2023-02-13T05:29:54;97503.81;;;-3.10;100.00
19590;BME280;12231;42.782;23.388;2023-02-13T05:32:20;97507.22;;;-3.08;100.00
19590;BME280;12231;42.782;23.388;2023-02-13T05:34:45;97513.09;;;-3.09;100.00
19590;BME280;12231;42.782;23.388;2023-02-13T05:37:11;97519.00;;;-3.07;100.00
19590;BME280;12231;42.782;23.388;2023-02-13T05:39:36;97526.69;;;-3.03;100.00
19590;BME280;12231;42.782;23.388;2023-02-13T05:42:01;97523.38;;;-3.00;100.00
19590;BME280;12231;42.782;23.388;2023-02-13T05:44:29;97526.69;;;-3.03;100.00
19590;BME280;12231;42.782;23.388;2023-02-13T05:46:55;97531.84;;;-2.98;100.00
19590;BME280;12231;42.782;23.388;2023-02-13T05:49:20;97531.41;;;-2.81;100.00
19590;BME280;12231;42.782;23.388;2023-02-13T05:51:47;97534.25;;;-2.67;100.00
19590;BME280;12231;42.782;23.388;2023-02-13T05:54:13;97531.03;;;-2.60;100.00
19590;BME280;12231;42.782;23.388;2023-02-13T05:56:39;97528.66;;;-2.54;100.00
19590;BME280;12231;42.782;23.388;2023-02-13T05:59:05;97528.00;;;-2.44;100.00
19590;BME280;12231;42.782;23.388;2023-02-13T06:01:31;97531.66;;;-2.31;100.00
19590;BME280;12231;42.782;23.388;2023-02-13T06:03:56;97540.34;;;-2.19;100.00
19590;BME280;12231;42.782;23.388;2023-02-13T06:06:22;97534.78;;;-2.03;100.00
19590;BME280;12231;42.782;23.388;2023-02-13T06:08:47;97542.53;;;-1.95;100.00
19590;BME280;12231;42.782;23.388;2023-02-13T06:11:13;97538.59;;;-1.81;100.00
19590;BME280;12231;42.782;23.388;2023-02-13T06:13:38;97544.00;;;-1.63;100.00
19590;BME280;12231;42.782;23.388;2023-02-13T06:16:10;97539.97;;;-1.52;100.00
19590;BME280;12231;42.782;23.388;2023-02-13T06:18:36;97548.63;;;-1.40;100.00
19590;BME280;12231;42.782;23.388;2023-02-13T06:21:03;97548.72;;;-1.35;100.00
19590;BME280;12231;42.782;23.388;2023-02-13T06:23:28;97545.38;;;-1.34;100.00
19590;BME280;12231;42.782;23.388;2023-02-13T06:25:54;97549.50;;;-1.39;100.00
19590;BME280;12231;42.782;23.388;2023-02-13T06:28:19;97542.47;;;-1.54;100.00
19590;BME280;12231;42.782;23.388;2023-02-13T06:30:45;97550.13;;;-1.51;100.00
19590;BME280;12231;42.782;23.388;2023-02-13T06:33:11;97553.69;;;-1.40;100.00
19590;BME280;12231;42.782;23.388;2023-02-13T06:35:36;97552.16;;;-1.30;100.00
19590;BME280;12231;42.782;23.388;2023-02-13T06:38:02;97551.50;;;-1.20;100.00
19590;BME280;12231;42.782;23.388;2023-02-13T06:40:27;97557.66;;;-1.06;100.00
19590;BME280;12231;42.782;23.388;2023-02-13T06:42:53;97562.13;;;-0.91;100.00
19590;BME280;12231;42.782;23.388;2023-02-13T06:45:18;97553.75;;;-0.87;100.00
19590;BME280;12231;42.782;23.388;2023-02-13T06:47:45;97555.81;;;-0.64;100.00
19590;BME280;12231;42.782;23.388;2023-02-13T06:50:13;97556.59;;;-0.66;100.00
19590;BME280;12231;42.782;23.388;2023-02-13T06:52:38;97554.28;;;-0.53;100.00
19590;BME280;12231;42.782;23.388;2023-02-13T06:55:04;97552.09;;;-0.29;100.00
19590;BME280;12231;42.782;23.388;2023-02-13T06:57:30;97559.38;;;0.12;100.00
19590;BME280;12231;42.782;23.388;2023-02-13T06:59:59;97553.78;;;0.38;100.00
19590;BME280;12231;42.782;23.388;2023-02-13T07:02:27;97555.63;;;0.50;100.00
19590;BME280;12231;42.782;23.388;2023-02-13T07:04:53;97559.28;;;0.79;100.00
19590;BME280;12231;42.782;23.388;2023-02-13T07:07:18;97559.50;;;1.00;99.36
19590;BME280;12231;42.782;23.388;2023-02-13T07:09:43;97552.97;;;1.27;99.42
19590;BME280;12231;42.782;23.388;2023-02-13T07:12:09;97567.75;;;1.87;97.51
19590;BME280;12231;42.782;23.388;2023-02-13T07:14:34;97550.38;;;2.99;94.93
19590;BME280;12231;42.782;23.388;2023-02-13T07:16:59;97556.19;;;4.16;90.56
19590;BME280;12231;42.782;23.388;2023-02-13T07:19:25;97560.84;;;5.07;83.73
19590;BME280;12231;42.782;23.388;2023-02-13T07:21:50;97559.50;;;5.70;77.95
19590;BME280;12231;42.782;23.388;2023-02-13T07:24:16;97558.97;;;6.24;77.17
19590;BME280;12231;42.782;23.388;2023-02-13T07:26:41;97544.31;;;7.02;71.88
19590;BME280;12231;42.782;23.388;2023-02-13T07:29:06;97545.88;;;6.48;74.93
19590;BME280;12231;42.782;23.388;2023-02-13T07:31:32;97541.97;;;7.91;72.58
19590;BME280;12231;42.782;23.388;2023-02-13T07:33:58;97543.28;;;7.13;68.00
19590;BME280;12231;42.782;23.388;2023-02-13T07:36:24;97540.06;;;6.37;71.26
19590;BME280;12231;42.782;23.388;2023-02-13T07:38:50;97539.25;;;6.33;72.48
19590;BME280;12231;42.782;23.388;2023-02-13T07:41:15;97541.63;;;7.09;70.82
19590;BME280;12231;42.782;23.388;2023-02-13T07:43:40;97531.13;;;7.76;66.86
19590;BME280;12231;42.782;23.388;2023-02-13T07:46:06;97531.59;;;9.21;65.92
19590;BME280;12231;42.782;23.388;2023-02-13T07:48:31;97512.44;;;10.62;61.06
19590;BME280;12231;42.782;23.388;2023-02-13T07:51:02;97515.72;;;10.38;59.66
19590;BME280;12231;42.782;23.388;2023-02-13T07:53:27;97521.06;;;9.31;62.57
19590;BME280;12231;42.782;23.388;2023-02-13T07:55:53;97521.09;;;9.97;60.71
19590;BME280;12231;42.782;23.388;2023-02-13T07:58:18;97510.13;;;11.90;58.57
19590;BME280;12231;42.782;23.388;2023-02-13T08:00:44;97512.47;;;13.13;53.88
19590;BME280;12231;42.782;23.388;2023-02-13T08:03:09;97513.06;;;13.19;52.96
19590;BME280;12231;42.782;23.388;2023-02-13T08:05:35;97510.09;;;13.71;50.13
19590;BME280;12231;42.782;23.388;2023-02-13T08:08:01;97503.78;;;13.57;51.00
19590;BME280;12231;42.782;23.388;2023-02-13T08:10:27;97491.91;;;14.33;49.76
19590;BME280;12231;42.782;23.388;2023-02-13T08:13:12;97500.78;;;14.85;47.35
19590;BME280;12231;42.782;23.388;2023-02-13T08:15:38;97492.56;;;14.75;47.16
19590;BME280;12231;42.782;23.388;2023-02-13T08:18:04;97489.41;;;14.69;47.69
19590;BME280;12231;42.782;23.388;2023-02-13T08:20:30;97496.81;;;13.99;47.22
19590;BME280;12231;42.782;23.388;2023-02-13T08:23:04;97492.97;;;14.85;46.93
19590;BME280;12231;42.782;23.388;2023-02-13T08:25:30;97490.84;;;14.17;48.81
19590;BME280;12231;42.782;23.388;2023-02-13T08:27:58;97493.44;;;15.30;54.59
19590;BME280;12231;42.782;23.388;2023-02-13T08:30:23;97491.06;;;15.44;45.44
19590;BME280;12231;42.782;23.388;2023-02-13T08:32:49;97489.97;;;14.94;46.13
19590;BME280;12231;42.782;23.388;2023-02-13T08:35:14;97495.38;;;15.08;46.73
19590;BME280;12231;42.782;23.388;2023-02-13T08:37:40;97490.78;;;15.32;45.87
19590;BME280;12231;42.782;23.388;2023-02-13T08:40:06;97486.69;;;15.09;45.77
19590;BME280;12231;42.782;23.388;2023-02-13T08:42:35;97501.91;;;13.19;51.52
19590;BME280;12231;42.782;23.388;2023-02-13T08:45:00;97490.78;;;14.57;46.74
19590;BME280;12231;42.782;23.388;2023-02-13T08:47:26;97483.94;;;14.93;46.22
19590;BME280;12231;42.782;23.388;2023-02-13T08:49:51;97493.44;;;13.97;48.30
19590;BME280;12231;42.782;23.388;2023-02-13T08:52:16;97494.50;;;13.51;49.20
19590;BME280;12231;42.782;23.388;2023-02-13T08:54:42;97498.06;;;10.54;55.94
19590;BME280;12231;42.782;23.388;2023-02-13T08:57:07;97497.03;;;11.42;55.96
19590;BME280;12231;42.782;23.388;2023-02-13T08:59:32;97503.06;;;9.65;60.19
19590;BME280;12231;42.782;23.388;2023-02-13T09:01:58;97509.94;;;9.64;61.77
19590;BME280;12231;42.782;23.388;2023-02-13T09:04:23;97502.50;;;9.54;61.80
19590;BME280;12231;42.782;23.388;2023-02-13T09:06:49;97496.41;;;8.86;64.81
19590;BME280;12231;42.782;23.388;2023-02-13T09:09:14;97504.69;;;8.99;65.61
19590;BME280;12231;42.782;23.388;2023-02-13T09:11:40;97507.84;;;9.45;63.09
19590;BME280;12231;42.782;23.388;2023-02-13T09:14:06;97512.22;;;9.06;62.12
19590;BME280;12231;42.782;23.388;2023-02-13T09:16:31;97505.72;;;10.28;58.35
19590;BME280;12231;42.782;23.388;2023-02-13T09:18:56;97505.69;;;8.92;62.51
19590;BME280;12231;42.782;23.388;2023-02-13T09:21:22;97503.38;;;8.42;64.83
19590;BME280;12231;42.782;23.388;2023-02-13T09:23:50;97503.25;;;9.57;61.48
19590;BME280;12231;42.782;23.388;2023-02-13T09:26:18;97496.31;;;10.25;59.10
19590;BME280;12231;42.782;23.388;2023-02-13T09:28:43;97497.09;;;10.29;59.37
19590;BME280;12231;42.782;23.388;2023-02-13T09:31:19;97496.09;;;10.33;58.48
19590;BME280;12231;42.782;23.388;2023-02-13T09:33:46;97497.78;;;9.36;59.44
19590;BME280;12231;42.782;23.388;2023-02-13T09:36:18;97508.66;;;7.41;68.65
19590;BME280;12231;42.782;23.388;2023-02-13T09:38:44;97492.88;;;8.90;64.07
19590;BME280;12231;42.782;23.388;2023-02-13T09:41:17;97495.47;;;9.60;61.25
19590;BME280;12231;42.782;23.388;2023-02-13T09:48:42;97470.22;;;10.66;59.01
19590;BME280;12231;42.782;23.388;2023-02-13T09:51:15;97464.25;;;13.10;52.56
19590;BME280;12231;42.782;23.388;2023-02-13T09:53:46;97451.28;;;13.94;49.10
19590;BME280;12231;42.782;23.388;2023-02-13T09:56:15;97453.69;;;12.93;49.72
19590;BME280;12231;42.782;23.388;2023-02-13T09:58:44;97449.19;;;11.83;52.65
19590;BME280;12231;42.782;23.388;2023-02-13T10:03:52;97452.28;;;11.68;53.81
19590;BME280;12231;42.782;23.388;2023-02-13T10:06:29;97451.03;;;11.53;53.57
19590;BME280;12231;42.782;23.388;2023-02-13T10:09:14;97445.19;;;11.22;54.89
19590;BME280;12231;42.782;23.388;2023-02-13T10:12:25;97433.94;;;11.51;54.70
19590;BME280;12231;42.782;23.388;2023-02-13T10:17:38;97424.38;;;11.79;56.56
19590;BME280;12231;42.782;23.388;2023-02-13T10:20:29;97421.78;;;12.71;53.36
19590;BME280;12231;42.782;23.388;2023-02-13T10:25:50;97403.69;;;15.59;45.13
19590;BME280;12231;42.782;23.388;2023-02-13T10:28:27;97395.50;;;16.49;43.70
19590;BME280;12231;42.782;23.388;2023-02-13T10:30:55;97392.13;;;15.30;44.69
19590;BME280;12231;42.782;23.388;2023-02-13T10:33:35;97385.53;;;15.23;45.11
19590;BME280;12231;42.782;23.388;2023-02-13T10:36:18;97398.53;;;15.74;44.67
19590;BME280;12231;42.782;23.388;2023-02-13T10:38:55;97392.25;;;13.40;48.44
19590;BME280;12231;42.782;23.388;2023-02-13T10:41:43;97383.72;;;14.54;47.06
19590;BME280;12231;42.782;23.388;2023-02-13T10:44:44;97375.44;;;15.34;44.96
19590;BME280;12231;42.782;23.388;2023-02-13T10:47:18;97370.81;;;15.41;43.65
19590;BME280;12231;42.782;23.388;2023-02-13T10:50:29;97374.50;;;14.10;46.71
19590;BME280;12231;42.782;23.388;2023-02-13T11:01:01;97364.28;;;13.28;51.51
19590;BME280;12231;42.782;23.388;2023-02-13T11:03:16;97353.94;;;14.61;46.80
19590;BME280;12231;42.782;23.388;2023-02-13T11:05:42;97353.06;;;14.25;48.05
19590;BME280;12231;42.782;23.388;2023-02-13T11:10:44;97338.97;;;14.49;46.71
19590;BME280;12231;42.782;23.388;2023-02-13T11:13:19;97344.88;;;13.76;48.53
19590;BME280;12231;42.782;23.388;2023-02-13T11:16:05;97339.16;;;14.44;46.64
19590;BME280;12231;42.782;23.388;2023-02-13T11:18:37;97318.88;;;14.52;46.36
19590;BME280;12231;42.782;23.388;2023-02-13T11:21:08;97338.03;;;12.30;50.19
19590;BME280;12231;42.782;23.388;2023-02-13T11:24:03;97329.50;;;12.50;52.31
19590;BME280;12231;42.782;23.388;2023-02-13T11:26:35;97323.09;;;12.15;53.88
19590;BME280;12231;42.782;23.388;2023-02-13T11:29:05;97312.50;;;12.00;52.76
19590;BME280;12231;42.782;23.388;2023-02-13T11:31:40;97305.19;;;11.88;52.12
19590;BME280;12231;42.782;23.388;2023-02-13T11:37:18;97303.31;;;9.89;59.91
19590;BME280;12231;42.782;23.388;2023-02-13T11:39:46;97296.69;;;10.37;58.86
19590;BME280;12231;42.782;23.388;2023-02-13T11:44:53;97280.94;;;10.96;56.83
19590;BME280;12231;42.782;23.388;2023-02-13T11:49:55;97267.00;;;11.73;54.70
19590;BME280;12231;42.782;23.388;2023-02-13T11:52:27;97272.16;;;11.02;53.68
19590;BME280;12231;42.782;23.388;2023-02-13T11:55:01;97260.53;;;10.64;56.30
19590;BME280;12231;42.782;23.388;2023-02-13T11:57:33;97265.34;;;10.23;57.48
19590;BME280;12231;42.782;23.388;2023-02-13T12:00:01;97248.16;;;11.23;55.26
19590;BME280;12231;42.782;23.388;2023-02-13T12:02:47;97248.41;;;10.92;55.61
19590;BME280;12231;42.782;23.388;2023-02-13T12:05:22;97248.97;;;11.71;51.89
19590;BME280;12231;42.782;23.388;2023-02-13T12:07:48;97245.91;;;12.06;51.70
19590;BME280;12231;42.782;23.388;2023-02-13T12:15:32;97242.09;;;11.72;50.57
19590;BME280;12231;42.782;23.388;2023-02-13T12:18:20;97229.44;;;12.09;49.99
19590;BME280;12231;42.782;23.388;2023-02-13T12:23:57;97221.41;;;12.58;49.16
19590;BME280;12231;42.782;23.388;2023-02-13T12:26:32;97219.56;;;12.80;48.98
19590;BME280;12231;42.782;23.388;2023-02-13T12:29:18;97208.44;;;12.38;48.94
19590;BME280;12231;42.782;23.388;2023-02-13T12:31:57;97215.19;;;11.54;49.11
19590;BME280;12231;42.782;23.388;2023-02-13T12:56:38;97183.13;;;10.66;51.80
19590;BME280;12231;42.782;23.388;2023-02-13T13:04:51;97166.16;;;11.76;47.38
19590;BME280;12231;42.782;23.388;2023-02-13T13:13:56;97158.97;;;11.61;46.94
19590;BME280;12231;42.782;23.388;2023-02-13T13:16:53;97152.47;;;9.80;52.02
19590;BME280;12231;42.782;23.388;2023-02-13T13:22:33;97158.03;;;10.71;49.60
19590;BME280;12231;42.782;23.388;2023-02-13T13:28:14;97148.75;;;10.41;49.71
19590;BME280;12231;42.782;23.388;2023-02-13T13:30:41;97151.34;;;10.65;49.19
19590;BME280;12231;42.782;23.388;2023-02-13T13:33:15;97153.78;;;10.93;48.75
19590;BME280;12231;42.782;23.388;2023-02-13T13:35:46;97150.13;;;10.51;49.58
19590;BME280;12231;42.782;23.388;2023-02-13T13:38:23;97145.81;;;10.51;50.20
19590;BME280;12231;42.782;23.388;2023-02-13T13:41:11;97146.47;;;9.80;51.21
19590;BME280;12231;42.782;23.388;2023-02-13T13:47:00;97141.75;;;9.66;52.15
19590;BME280;12231;42.782;23.388;2023-02-13T13:49:48;97156.69;;;9.55;51.20
19590;BME280;12231;42.782;23.388;2023-02-13T13:52:26;97151.16;;;9.95;51.35
19590;BME280;12231;42.782;23.388;2023-02-13T13:54:53;97153.31;;;10.08;50.31
19590;BME280;12231;42.782;23.388;2023-02-13T13:57:20;97145.50;;;9.84;51.73
19590;BME280;12231;42.782;23.388;2023-02-13T14:07:44;97147.28;;;9.26;53.49
19590;BME280;12231;42.782;23.388;2023-02-13T14:20:38;97132.16;;;9.16;54.70
19590;BME280;12231;42.782;23.388;2023-02-13T14:23:16;97125.41;;;9.41;54.20
19590;BME280;12231;42.782;23.388;2023-02-13T14:25:43;97128.00;;;9.12;55.27
19590;BME280;12231;42.782;23.388;2023-02-13T14:28:20;97122.97;;;9.36;54.80
19590;BME280;12231;42.782;23.388;2023-02-13T14:30:45;97129.22;;;9.28;54.29
19590;BME280;12231;42.782;23.388;2023-02-13T14:33:26;97130.91;;;9.00;55.03
19590;BME280;12231;42.782;23.388;2023-02-13T14:36:05;97131.34;;;8.86;55.78
19590;BME280;12231;42.782;23.388;2023-02-13T14:38:32;97125.72;;;8.72;56.70
19590;BME280;12231;42.782;23.388;2023-02-13T14:40:58;97127.75;;;8.61;57.17
19590;BME280;12231;42.782;23.388;2023-02-13T14:43:45;97124.97;;;8.37;58.27
19590;BME280;12231;42.782;23.388;2023-02-13T14:46:36;97128.53;;;8.32;57.85
19590;BME280;12231;42.782;23.388;2023-02-13T14:49:12;97127.81;;;8.27;58.46
19590;BME280;12231;42.782;23.388;2023-02-13T14:51:52;97125.06;;;8.33;57.95
19590;BME280;12231;42.782;23.388;2023-02-13T14:54:41;97126.66;;;8.38;57.69
19590;BME280;12231;42.782;23.388;2023-02-13T14:57:18;97120.28;;;8.18;58.10
19590;BME280;12231;42.782;23.388;2023-02-13T15:00:07;97118.50;;;8.22;58.18
19590;BME280;12231;42.782;23.388;2023-02-13T15:02:51;97118.50;;;8.22;58.74
19590;BME280;12231;42.782;23.388;2023-02-13T15:05:19;97122.59;;;7.95;59.70
19590;BME280;12231;42.782;23.388;2023-02-13T15:08:01;97116.56;;;7.98;59.68
19590;BME280;12231;42.782;23.388;2023-02-13T15:10:45;97121.94;;;7.87;60.08
19590;BME280;12231;42.782;23.388;2023-02-13T15:13:19;97120.31;;;7.85;60.83
19590;BME280;12231;42.782;23.388;2023-02-13T15:16:00;97122.47;;;7.66;61.12
19590;BME280;12231;42.782;23.388;2023-02-13T15:18:30;97129.13;;;7.37;61.20
19590;BME280;12231;42.782;23.388;2023-02-13T15:20:57;97129.53;;;7.20;62.11
19590;BME280;12231;42.782;23.388;2023-02-13T15:23:27;97129.31;;;7.29;61.84
19590;BME280;12231;42.782;23.388;2023-02-13T15:26:01;97125.84;;;7.32;62.57
19590;BME280;12231;42.782;23.388;2023-02-13T15:28:27;97123.13;;;6.99;63.80
19590;BME280;12231;42.782;23.388;2023-02-13T15:30:58;97119.66;;;7.02;63.50
19590;BME280;12231;42.782;23.388;2023-02-13T15:33:28;97130.38;;;6.81;64.76
19590;BME280;12231;42.782;23.388;2023-02-13T15:36:01;97129.50;;;6.80;64.34
19590;BME280;12231;42.782;23.388;2023-02-13T15:38:32;97133.81;;;6.36;66.26